Airport View

Enter ICAO identifier to see the current METAR for that AWOS.

KFNL for example

KGPZ 261055Z AUTO 00000KT 10SM CLR 16/13 A2980 RMK AO1

26 Jul 2014 11:08

Frequency: 118.425

Phone: 218-326-8337

Other Area AWOS: KHIB - KXVG - KFOZ - KHZX

TAF AMD KHIB 260951Z 2610/2706 VRB01KT 1/4SM FG OVC002 TEMPO 2610/2613 4SM BR SCT002 FM261300 27003KT P6SM SCT002 FM261600 26008KT P6SM SCT040 FM270100 26007KT P6SM VCSH BKN050